createdAt,value
2023-05-14T00:04:36.728Z,14.18
2023-05-14T00:09:40.376Z,14.93
2023-05-14T00:14:43.227Z,14.63
2023-05-14T00:19:46.051Z,12.92
2023-05-14T00:24:48.615Z,12.50
2023-05-14T00:29:51.260Z,13.81
2023-05-14T00:34:53.863Z,14.55
2023-05-14T00:39:58.159Z,14.16
2023-05-14T00:45:00.784Z,12.40
2023-05-14T00:50:04.019Z,12.11
2023-05-14T00:55:07.681Z,13.49
2023-05-14T01:00:11.072Z,14.25
2023-05-14T01:05:14.341Z,14.53
2023-05-14T01:10:29.706Z,13.27
2023-05-14T01:15:35.434Z,11.82
2023-05-14T01:20:38.162Z,12.32
2023-05-14T01:25:41.048Z,13.53
2023-05-14T01:30:57.036Z,14.01
2023-05-14T01:36:00.004Z,12.58
2023-05-14T01:41:03.198Z,11.16
2023-05-14T01:46:05.821Z,11.44
2023-05-14T01:51:08.644Z,12.81
2023-05-14T01:56:11.253Z,13.51
2023-05-14T02:01:13.911Z,12.96
2023-05-14T02:06:16.532Z,11.16
2023-05-14T02:11:19.072Z,11.00
2023-05-14T02:16:21.700Z,12.38
2023-05-14T02:21:24.433Z,13.15
2023-05-14T02:26:27.191Z,13.57
2023-05-14T02:31:30.313Z,12.82
2023-05-14T02:36:33.113Z,11.14
2023-05-14T02:41:35.860Z,10.94
2023-05-14T02:46:38.392Z,12.43
2023-05-14T02:51:40.970Z,13.28
2023-05-14T02:56:43.772Z,13.17
2023-05-14T03:01:46.438Z,11.52
2023-05-14T03:06:49.405Z,11.17
2023-05-14T03:11:52.007Z,12.61
2023-05-14T03:16:54.644Z,13.44
2023-05-14T03:21:57.192Z,13.08
2023-05-14T03:26:59.700Z,11.42
2023-05-14T03:32:02.248Z,11.28
2023-05-14T03:37:05.479Z,12.88
2023-05-14T03:42:08.133Z,13.69
2023-05-14T03:47:11.246Z,13.11
2023-05-14T03:52:13.823Z,11.77
2023-05-14T03:57:16.463Z,11.59
2023-05-14T04:02:19.191Z,13.10
2023-05-14T04:07:21.981Z,13.44
2023-05-14T04:12:24.595Z,12.09
2023-05-14T04:17:27.250Z,11.33
2023-05-14T04:22:29.763Z,12.81
2023-05-14T04:27:33.677Z,14.18
2023-05-14T04:32:36.613Z,13.81
2023-05-14T04:37:39.237Z,12.72
2023-05-14T04:42:42.420Z,12.16
2023-05-14T04:47:46.718Z,12.62
2023-05-14T04:52:49.355Z,14.68
2023-05-14T04:57:51.967Z,15.32
2023-05-14T05:02:54.722Z,14.38
2023-05-14T05:07:57.387Z,13.96
2023-05-14T05:13:00.421Z,13.79
2023-05-14T05:18:06.368Z,13.75
2023-05-14T05:23:09.013Z,13.80
2023-05-14T05:28:11.958Z,13.90
2023-05-14T05:33:14.692Z,14.06
2023-05-14T05:38:18.319Z,14.25
2023-05-14T05:43:21.006Z,14.48
2023-05-14T05:48:23.616Z,14.74
2023-05-14T05:53:26.196Z,14.99
2023-05-14T05:58:29.071Z,15.23
2023-05-14T06:03:33.946Z,15.44
2023-05-14T06:08:36.529Z,15.63
2023-05-14T06:13:39.168Z,15.91
2023-05-14T06:18:41.718Z,16.22
2023-05-14T06:23:44.581Z,16.52
2023-05-14T06:28:48.397Z,16.79
2023-05-14T06:33:52.278Z,17.09
2023-05-14T06:38:54.847Z,17.40
2023-05-14T06:43:57.764Z,17.70
2023-05-14T06:49:00.482Z,18.00
2023-05-14T06:54:04.474Z,18.31
2023-05-14T06:59:08.139Z,18.65
2023-05-14T07:04:11.045Z,18.98
2023-05-14T07:09:13.719Z,19.31
2023-05-14T07:14:16.430Z,19.67
2023-05-14T07:19:19.141Z,20.00
2023-05-14T07:24:21.973Z,20.33
2023-05-14T07:29:25.433Z,20.64
2023-05-14T07:34:28.008Z,20.92
2023-05-14T07:39:30.935Z,21.21
2023-05-14T07:44:33.499Z,21.49
2023-05-14T07:49:36.679Z,21.74
2023-05-14T07:54:41.635Z,22.00
2023-05-14T07:59:44.396Z,22.20
2023-05-14T08:04:46.927Z,22.38
2023-05-14T08:09:49.512Z,22.55
2023-05-14T08:14:53.447Z,22.73
2023-05-14T08:19:55.996Z,22.89
2023-05-14T08:24:59.597Z,23.01
2023-05-14T08:30:02.188Z,23.16
2023-05-14T08:35:05.321Z,23.37
2023-05-14T08:40:09.359Z,23.56
2023-05-14T08:45:19.832Z,23.74
2023-05-14T08:50:23.736Z,23.91
2023-05-14T08:55:26.786Z,24.08
2023-05-14T09:00:29.517Z,24.22
2023-05-14T09:05:33.351Z,24.37
2023-05-14T09:10:36.241Z,24.49
2023-05-14T09:15:41.314Z,24.72
2023-05-14T09:20:44.180Z,24.95
2023-05-14T09:25:48.412Z,25.14
2023-05-14T09:30:52.138Z,25.20
2023-05-14T09:36:01.805Z,25.12
2023-05-14T09:41:04.528Z,24.97
2023-05-14T09:46:07.086Z,25.21
2023-05-14T09:51:11.508Z,25.60
2023-05-14T09:56:14.740Z,25.83
2023-05-14T10:01:20.076Z,25.69
2023-05-14T10:06:28.490Z,25.60
2023-05-14T10:11:34.213Z,25.62
2023-05-14T10:16:51.494Z,25.81
2023-05-14T10:22:04.594Z,26.17
2023-05-14T10:27:07.647Z,26.47
2023-05-14T10:32:13.178Z,26.54
2023-05-14T10:37:18.151Z,26.46
2023-05-14T10:42:32.444Z,26.74
2023-05-14T10:47:40.006Z,26.95
2023-05-14T10:52:44.083Z,27.00
2023-05-14T10:57:46.974Z,27.07
2023-05-14T11:02:49.852Z,27.24
2023-05-14T11:07:56.760Z,27.55
2023-05-14T11:12:59.589Z,27.55
2023-05-14T11:18:02.246Z,27.48
2023-05-14T11:23:05.084Z,27.64
2023-05-14T11:28:08.323Z,27.74
2023-05-14T11:33:11.490Z,27.81
2023-05-14T11:38:18.085Z,28.04
2023-05-14T11:43:23.734Z,27.79
2023-05-14T11:48:26.450Z,27.15
2023-05-14T11:53:31.112Z,26.45
2023-05-14T11:58:33.999Z,25.67
2023-05-14T12:03:36.918Z,25.32
2023-05-14T12:08:40.020Z,25.28
2023-05-14T12:13:42.569Z,25.28
2023-05-14T12:18:45.273Z,25.29
2023-05-14T12:23:48.160Z,25.23
2023-05-14T12:28:50.935Z,25.04
2023-05-14T12:33:53.476Z,24.84
2023-05-14T12:39:01.710Z,24.59
2023-05-14T12:44:04.837Z,24.46
2023-05-14T12:49:07.774Z,24.63
2023-05-14T12:54:11.238Z,24.86
2023-05-14T12:59:13.810Z,24.81
2023-05-14T13:04:16.481Z,24.74
2023-05-14T13:09:19.223Z,25.18
2023-05-14T13:14:21.897Z,25.71
2023-05-14T13:19:24.685Z,26.14
2023-05-14T13:24:27.857Z,26.83
2023-05-14T13:29:31.545Z,27.78
2023-05-14T13:34:34.144Z,28.11
2023-05-14T13:39:36.738Z,27.93
2023-05-14T13:44:39.400Z,27.90
2023-05-14T13:49:42.902Z,28.59
2023-05-14T13:54:45.929Z,29.50
2023-05-14T13:59:49.093Z,30.27
2023-05-14T14:04:51.763Z,30.95
2023-05-14T14:09:54.358Z,31.17
2023-05-14T14:14:57.114Z,31.08
2023-05-14T14:19:59.649Z,31.15
2023-05-14T14:25:02.883Z,31.72
2023-05-14T14:30:15.489Z,32.49
2023-05-14T14:35:19.792Z,33.09
2023-05-14T14:40:23.910Z,33.72
2023-05-14T14:45:26.573Z,34.26
2023-05-14T14:50:29.216Z,34.02
2023-05-14T14:55:32.024Z,34.06
2023-05-14T15:00:34.902Z,34.29
2023-05-14T15:05:37.749Z,34.54
2023-05-14T15:10:41.707Z,34.99
2023-05-14T15:15:44.517Z,35.62
2023-05-14T15:20:47.191Z,36.04
2023-05-14T15:25:50.071Z,35.62
2023-05-14T15:30:52.909Z,34.94
2023-05-14T15:35:57.621Z,34.70
2023-05-14T15:41:00.575Z,34.92
2023-05-14T15:46:03.379Z,35.51
2023-05-14T15:51:06.271Z,36.29
2023-05-14T15:56:08.996Z,36.34
2023-05-14T16:01:11.603Z,35.99
2023-05-14T16:06:14.237Z,35.55
2023-05-14T16:11:17.218Z,35.28
2023-05-14T16:16:22.819Z,35.06
2023-05-14T16:21:25.795Z,35.39
2023-05-14T16:26:29.230Z,34.84
2023-05-14T16:31:32.074Z,33.32
2023-05-14T16:36:34.846Z,31.60
2023-05-14T16:41:37.511Z,29.98
2023-05-14T16:46:40.338Z,28.64
2023-05-14T16:51:43.885Z,27.60
2023-05-14T16:56:49.161Z,26.67
2023-05-14T17:01:51.860Z,25.97
2023-05-14T17:06:54.541Z,25.46
2023-05-14T17:11:57.214Z,25.13
2023-05-14T17:16:59.910Z,25.00
2023-05-14T17:22:05.763Z,24.87
2023-05-14T17:27:08.653Z,24.80
2023-05-14T17:32:11.438Z,24.64
2023-05-14T17:37:14.264Z,24.31
2023-05-14T17:42:17.210Z,23.92
2023-05-14T17:47:20.697Z,23.53
2023-05-14T17:52:23.414Z,23.09
2023-05-14T17:57:26.548Z,22.65
2023-05-14T18:02:29.211Z,22.23
2023-05-14T18:07:32.334Z,21.86
2023-05-14T18:12:34.941Z,21.47
2023-05-14T18:17:37.775Z,21.02
2023-05-14T18:22:40.719Z,20.61
2023-05-14T18:27:45.053Z,20.19
2023-05-14T18:32:47.984Z,19.76
2023-05-14T18:37:50.864Z,19.32
2023-05-14T18:42:54.026Z,18.91
2023-05-14T18:47:57.006Z,18.54
2023-05-14T18:52:59.703Z,18.18
2023-05-14T18:58:03.062Z,17.86
2023-05-14T19:03:06.203Z,17.52
2023-05-14T19:08:08.902Z,17.18
2023-05-14T19:13:11.831Z,16.87
2023-05-14T19:18:15.802Z,16.57
2023-05-14T19:23:18.780Z,16.22
2023-05-14T19:28:21.415Z,15.91
2023-05-14T19:33:26.029Z,15.70
2023-05-14T19:38:29.586Z,15.54
2023-05-14T19:43:32.235Z,15.42
2023-05-14T19:48:36.155Z,15.26
2023-05-14T19:53:39.127Z,15.01
2023-05-14T19:58:41.777Z,14.78
2023-05-14T20:03:44.507Z,14.59
2023-05-14T20:08:47.121Z,14.39
2023-05-14T20:13:49.688Z,14.20
2023-05-14T20:18:53.500Z,14.07
2023-05-14T20:23:56.097Z,13.97
2023-05-14T20:28:58.722Z,13.91
2023-05-14T20:34:02.099Z,13.88
2023-05-14T20:39:06.175Z,13.91
2023-05-14T20:44:08.920Z,13.88
2023-05-14T20:49:11.507Z,13.82
2023-05-14T20:54:14.026Z,13.74
2023-05-14T20:59:16.708Z,13.66
2023-05-14T21:04:19.561Z,13.56
2023-05-14T21:09:23.673Z,13.46
2023-05-14T21:14:26.489Z,13.34
2023-05-14T21:19:29.038Z,13.18
2023-05-14T21:24:31.635Z,13.06
2023-05-14T21:29:34.749Z,12.96
2023-05-14T21:34:37.440Z,12.89
2023-05-14T21:39:40.093Z,12.83
2023-05-14T21:44:43.904Z,12.75
2023-05-14T21:49:46.537Z,12.70
2023-05-14T21:54:49.079Z,12.65
2023-05-14T21:59:51.613Z,12.61
2023-05-14T22:04:54.271Z,12.56
2023-05-14T22:09:56.894Z,12.54
2023-05-14T22:14:59.508Z,12.54
2023-05-14T22:20:05.586Z,12.54
2023-05-14T22:25:08.847Z,12.54
2023-05-14T22:30:11.875Z,12.51
2023-05-14T22:35:14.529Z,12.49
2023-05-14T22:40:17.137Z,12.51
2023-05-14T22:45:19.990Z,12.51
2023-05-14T22:50:22.585Z,12.49
2023-05-14T22:55:25.490Z,12.43
2023-05-14T23:00:28.283Z,12.34
2023-05-14T23:05:31.058Z,12.24
2023-05-14T23:10:35.403Z,12.11
2023-05-14T23:15:38.798Z,12.00
2023-05-14T23:20:41.515Z,11.90
2023-05-14T23:25:44.120Z,11.80
2023-05-14T23:30:46.658Z,11.68
2023-05-14T23:35:49.369Z,11.56
2023-05-14T23:40:51.900Z,11.43
2023-05-14T23:45:54.590Z,11.30
2023-05-14T23:50:57.168Z,11.19
2023-05-14T23:55:59.955Z,11.10
